Bookmark and Share
Track history (hours):
 

MSC Chiara

Last reported at 2014-Apr-09 06:32 UTC. Time now 2014-Apr-18 13:21 UTC.
Position S 28°31' E 032°37'.
Warning: this ship's position is 9 days out of date.

Length 197 m; draft 7.7 m.

Type: Ship (hazmat cat A). MMSI: 352398000.

NotesDate/timePositionNaut miles runAvg speedWind from/ knotsBaromVisibWave heightAir tempDewpointWater temp
2014-Apr-09 06:32S 28°31' E 032°37'1211.1
2014-Apr-09 05:27S 28°40' E 032°29'3711.5
2014-Apr-09 02:13S 29°08' E 032°01'1013.1
2014-Apr-09 01:29S 29°15' E 031°53'1213.1
2014-Apr-09 00:33S 29°25' E 031°45'1413.3
2014-Apr-08 23:32S 29°34' E 031°34'1313.7
2014-Apr-08 22:34S 29°43' E 031°23'1312.8
2014-Apr-08 21:32S 29°50' E 031°10'8 3.7
2014-Apr-08 19:26S 29°53' E 031°01'0 0.0
2014-Apr-08 15:12S 29°53' E 031°01'0 0.0
2014-Apr-08 14:18S 29°53' E 031°01'0 0.0
2014-Apr-08 13:25S 29°53' E 031°01'0 0.0
2014-Apr-08 12:33S 29°53' E 031°01'0 0.0
2014-Apr-08 11:32S 29°53' E 031°01'0 0.0
2014-Apr-08 10:30S 29°53' E 031°01'0 0.0
2014-Apr-08 09:28S 29°53' E 031°01'0 0.0
2014-Apr-08 08:32S 29°53' E 031°01'0 0.0
2014-Apr-08 07:28S 29°53' E 031°01'0 0.0
2014-Apr-08 04:33S 29°53' E 031°01'0 0.0
2014-Apr-08 03:32S 29°53' E 031°01'0 0.0
2014-Apr-08 02:12S 29°53' E 031°01'0 0.0
2014-Apr-08 01:20S 29°53' E 031°01'0 0.0
2014-Apr-08 00:32S 29°53' E 031°01'0 0.0
2014-Apr-07 23:32S 29°53' E 031°01'0 0.0
2014-Apr-07 21:12S 29°53' E 031°01'0 0.0
2014-Apr-07 20:33S 29°53' E 031°01'0 0.0
2014-Apr-07 19:31S 29°53' E 031°01'0 0.0
2014-Apr-07 17:30S 29°53' E 031°01'0 0.0
2014-Apr-07 16:25S 29°53' E 031°01'0 0.0
2014-Apr-07 15:29S 29°53' E 031°01'0 0.0
2014-Apr-07 14:22S 29°53' E 031°01'0 0.0
2014-Apr-07 13:08S 29°53' E 031°01'0 0.0
2014-Apr-07 12:27S 29°53' E 031°01'0 0.0
2014-Apr-07 11:22S 29°53' E 031°01'0 0.0
2014-Apr-07 10:29S 29°53' E 031°01'0 0.0
2014-Apr-07 09:27S 29°53' E 031°01'0 0.0
2014-Apr-07 08:32S 29°53' E 031°01'0 0.0
2014-Apr-07 07:22S 29°53' E 031°01'0 0.0
2014-Apr-07 06:33S 29°53' E 031°01'0 0.0
2014-Apr-07 05:30S 29°53' E 031°01'0 0.0
2014-Apr-07 04:33S 29°53' E 031°01'0 0.0
2014-Apr-07 03:33S 29°53' E 031°01'0 0.0
2014-Apr-07 02:26S 29°53' E 031°01'0 0.0
2014-Apr-07 01:33S 29°53' E 031°01'0 0.0
2014-Apr-07 00:29S 29°53' E 031°01'0 0.0
2014-Apr-06 23:32S 29°53' E 031°01'4 4.3
2014-Apr-06 22:32S 29°50' E 031°05'2 1.8
2014-Apr-06 21:33S 29°49' E 031°06'8 7.6
2014-Apr-06 20:33S 29°47' E 031°15'8 8.4
2014-Apr-06 19:33S 29°45' E 031°24'2 1.8
2014-Apr-06 18:33S 29°46' E 031°24'2 1.5
2014-Apr-06 17:33S 29°48' E 031°24'2 1.7
2014-Apr-06 16:32S 29°50' E 031°23'2 1.6
2014-Apr-06 15:33S 29°51' E 031°23'1 1.5
2014-Apr-06 14:33S 29°53' E 031°24'1 1.3
2014-Apr-06 13:33S 29°54' E 031°24'2 1.7
2014-Apr-06 12:33S 29°55' E 031°23'2 1.8
2014-Apr-06 11:33S 29°57' E 031°22'3 3.3
2014-Apr-06 10:33S 29°57' E 031°18'7 6.9
2014-Apr-06 09:33S 29°53' E 031°12'3 3.1
2014-Apr-06 08:33S 29°56' E 031°11'3 3.4
2014-Apr-06 07:33S 29°59' E 031°10'5 4.8
2014-Apr-06 06:33S 29°56' E 031°14'6 5.7
2014-Apr-06 05:33S 29°52' E 031°19'6 5.8
2014-Apr-06 04:33S 29°47' E 031°23'5 5.0
2014-Apr-06 03:34S 29°42' E 031°25'3 2.6
2014-Apr-06 02:33S 29°44' E 031°23'3 3.0
2014-Apr-06 01:33S 29°47' E 031°22'3 3.3
2014-Apr-06 00:32S 29°50' E 031°19'3 3.5
2014-Apr-05 23:32S 29°52' E 031°17'3 3.2
2014-Apr-05 22:33S 29°54' E 031°14'10 9.6
2014-Apr-05 21:33S 30°01' E 031°06'1615.7
2014-Apr-05 20:33S 30°15' E 030°57'13414.6
2014-Apr-05 11:22S 32°02' E 029°22'1312.5
2014-Apr-05 10:21S 32°11' E 029°12'1312.2
2014-Apr-05 09:18S 32°20' E 029°01'12312.3
2014-Apr-04 23:18S 33°38' E 027°07'1214.0
2014-Apr-04 22:25S 33°44' E 026°54'4413.8
2014-Apr-04 19:15S 33°56' E 026°04'20 0.4
2014-Apr-02 18:16S 33°48' E 025°41'4 3.6
2014-Apr-02 17:14S 33°52' E 025°42'4611.4
2014-Apr-02 13:10S 33°49' E 026°38'5113.0
2014-Apr-02 09:14S 33°25' E 027°32'1413.6
2014-Apr-02 08:12S 33°17' E 027°46'17015.4
2014-Apr-01 21:10S 31°20' E 030°11'6313.2
2014-Apr-01 16:26S 30°35' E 031°02'1513.9
2014-Apr-01 15:22S 30°24' E 031°13'1214.7
2014-Apr-01 14:33S 30°16' E 031°23'1514.7
2014-Apr-01 13:33S 30°05' E 031°35'1716.8
2014-Apr-01 12:33S 29°51' E 031°46'1818.1
2014-Apr-01 11:33S 29°35' E 031°56'1818.4
2014-Apr-01 10:33S 29°19' E 032°06'8917.2
2014-Apr-01 05:22S 27°57' E 032°46'1416.1
2014-Apr-01 04:31S 27°44' E 032°51'  

Dump ship's entire track history

sailing weather and tide predictions

MSC Chiara — H3RT — position and weather